createdAt,value
2022-11-12T00:00:50.433Z,15.52
2022-11-12T00:03:17.595Z,15.02
2022-11-12T00:05:45.396Z,15.48
2022-11-12T00:08:12.560Z,15.30
2022-11-12T00:10:39.728Z,15.77
2022-11-12T00:13:06.958Z,13.88
2022-11-12T00:15:34.198Z,14.30
2022-11-12T00:18:01.395Z,15.18
2022-11-12T00:20:28.568Z,14.63
2022-11-12T00:22:55.877Z,13.77
2022-11-12T00:25:23.047Z,15.05
2022-11-12T00:27:50.200Z,13.70
2022-11-12T00:30:17.500Z,15.57
2022-11-12T00:32:44.653Z,14.63
2022-11-12T00:35:13.963Z,14.40
2022-11-12T00:37:41.374Z,14.82
2022-11-12T00:40:09.152Z,15.25
2022-11-12T00:42:36.382Z,14.30
2022-11-12T00:45:03.683Z,14.68
2022-11-12T00:47:30.856Z,14.68
2022-11-12T00:49:58.017Z,14.52
2022-11-12T00:52:25.187Z,14.35
2022-11-12T00:54:52.377Z,15.68
2022-11-12T00:57:19.555Z,15.18
2022-11-12T00:59:46.716Z,15.73
2022-11-12T01:02:13.860Z,17.05
2022-11-12T01:04:40.995Z,16.13
2022-11-12T01:07:08.174Z,17.65
2022-11-12T01:09:35.377Z,16.20
2022-11-12T01:12:02.577Z,16.00
2022-11-12T01:14:29.755Z,15.85
2022-11-12T01:16:56.891Z,17.75
2022-11-12T01:19:24.064Z,17.02
2022-11-12T01:21:51.203Z,15.80
2022-11-12T01:24:18.371Z,15.52
2022-11-12T01:26:45.534Z,17.02
2022-11-12T01:29:12.667Z,15.52
2022-11-12T01:31:39.820Z,15.32
2022-11-12T01:34:08.121Z,15.25
2022-11-12T01:36:39.129Z,15.15
2022-11-12T01:39:08.026Z,14.88
2022-11-12T01:41:36.052Z,14.35
2022-11-12T01:44:09.468Z,15.77
2022-11-12T01:46:38.209Z,15.57
2022-11-12T01:49:07.052Z,15.02
2022-11-12T01:51:35.812Z,15.77
2022-11-12T01:54:04.821Z,15.30
2022-11-12T01:56:32.258Z,15.38
2022-11-12T01:59:05.208Z,15.82
2022-11-12T02:01:32.590Z,15.05
2022-11-12T02:03:59.797Z,14.60
2022-11-12T02:06:27.173Z,14.65
2022-11-12T02:08:54.428Z,15.57
2022-11-12T02:11:22.409Z,15.52
2022-11-12T02:14:05.072Z,16.08
2022-11-12T02:16:36.901Z,14.77
2022-11-12T02:19:05.015Z,14.65
2022-11-12T02:21:32.511Z,14.90
2022-11-12T02:24:00.682Z,15.90
2022-11-12T02:26:30.184Z,14.25
2022-11-12T02:28:57.373Z,15.48
2022-11-12T02:31:24.547Z,14.07
2022-11-12T02:33:51.752Z,13.63
2022-11-12T02:36:18.912Z,14.25
2022-11-12T02:38:46.173Z,14.15
2022-11-12T02:41:13.330Z,13.35
2022-11-12T02:43:41.236Z,14.00
2022-11-12T02:46:08.379Z,14.15
2022-11-12T02:48:35.525Z,13.82
2022-11-12T02:51:02.753Z,14.20
2022-11-12T02:53:30.003Z,13.32
2022-11-12T02:55:57.184Z,13.70
2022-11-12T02:58:24.621Z,12.82
2022-11-12T03:00:52.214Z,13.10
2022-11-12T03:03:19.410Z,14.10
2022-11-12T03:05:47.607Z,13.40
2022-11-12T03:08:14.805Z,14.10
2022-11-12T03:10:41.951Z,13.27
2022-11-12T03:13:09.132Z,13.60
2022-11-12T03:15:36.305Z,11.70
2022-11-12T03:18:03.680Z,11.82
2022-11-12T03:20:30.955Z,12.30
2022-11-12T03:22:58.136Z,12.93
2022-11-12T03:25:25.948Z,12.73
2022-11-12T03:28:03.821Z,11.63
2022-11-12T03:30:31.987Z,11.25
2022-11-12T03:32:59.200Z,11.68
2022-11-12T03:35:26.879Z,12.43
2022-11-12T03:37:54.060Z,11.88
2022-11-12T03:40:21.302Z,10.63
2022-11-12T03:42:49.277Z,11.68
2022-11-12T03:45:20.529Z,11.52
2022-11-12T03:47:52.212Z,11.40
2022-11-12T03:50:20.090Z,10.73
2022-11-12T03:52:48.028Z,12.07
2022-11-12T03:55:15.808Z,10.93
2022-11-12T03:57:43.604Z,11.43
2022-11-12T04:00:11.567Z,11.45
2022-11-12T04:02:38.739Z,10.98
2022-11-12T04:05:25.228Z,10.25
2022-11-12T04:08:36.391Z,10.73
2022-11-12T04:11:06.279Z,10.32
2022-11-12T04:13:33.798Z,10.38
2022-11-12T04:16:21.104Z,11.07
2022-11-12T04:19:08.071Z,12.27
2022-11-12T04:21:56.302Z,11.30
2022-11-12T04:24:49.499Z,11.23
2022-11-12T04:27:18.133Z,11.25
2022-11-12T04:30:04.432Z,11.02
2022-11-12T04:32:32.483Z,10.98
2022-11-12T04:34:59.999Z,11.45
2022-11-12T04:37:28.515Z,10.93
2022-11-12T04:39:55.832Z,10.88
2022-11-12T04:42:41.633Z,11.00
2022-11-12T04:45:10.691Z,11.32
2022-11-12T04:47:39.191Z,11.88
2022-11-12T04:50:07.859Z,13.45
2022-11-12T04:52:35.147Z,12.88
2022-11-12T04:55:02.364Z,12.18
2022-11-12T04:57:29.602Z,11.77
2022-11-12T04:59:56.764Z,11.00
2022-11-12T05:02:23.917Z,11.20
2022-11-12T05:04:51.121Z,11.25
2022-11-12T05:07:18.591Z,12.20
2022-11-12T05:09:45.939Z,12.15
2022-11-12T05:12:13.140Z,11.45
2022-11-12T05:14:40.350Z,13.38
2022-11-12T05:17:07.865Z,12.38
2022-11-12T05:19:35.314Z,11.88
2022-11-12T05:22:05.685Z,13.38
2022-11-12T05:24:41.930Z,12.85
2022-11-12T05:27:20.794Z,13.73
2022-11-12T05:29:47.934Z,13.35
2022-11-12T05:32:16.282Z,13.77
2022-11-12T05:34:43.501Z,13.10
2022-11-12T05:37:11.680Z,14.10
2022-11-12T05:39:39.115Z,14.60
2022-11-12T05:42:12.944Z,14.02
2022-11-12T05:44:40.877Z,15.05
2022-11-12T05:47:08.041Z,15.45
2022-11-12T05:49:35.218Z,15.10
2022-11-12T05:52:02.381Z,14.90
2022-11-12T05:54:29.545Z,16.17
2022-11-12T05:56:56.747Z,16.50
2022-11-12T05:59:24.507Z,14.85
2022-11-12T06:01:51.677Z,17.63
2022-11-12T06:04:18.898Z,16.27
2022-11-12T06:06:46.264Z,16.05
2022-11-12T06:09:13.532Z,16.77
2022-11-12T06:11:40.879Z,15.93
2022-11-12T06:14:08.051Z,17.02
2022-11-12T06:16:35.207Z,16.67
2022-11-12T06:19:02.522Z,16.45
2022-11-12T06:21:29.684Z,17.75
2022-11-12T06:23:58.655Z,17.27
2022-11-12T06:26:30.582Z,16.25
2022-11-12T06:28:57.800Z,15.82
2022-11-12T06:31:25.190Z,17.30
2022-11-12T06:33:52.406Z,15.93
2022-11-12T06:36:20.614Z,16.73
2022-11-12T06:38:47.880Z,16.02
2022-11-12T06:41:15.324Z,15.35
2022-11-12T06:43:42.587Z,18.02
2022-11-12T06:46:13.632Z,18.17
2022-11-12T06:48:41.278Z,16.23
2022-11-12T06:51:13.063Z,15.60
2022-11-12T06:53:40.288Z,14.98
2022-11-12T06:56:08.477Z,14.52
2022-11-12T06:58:35.856Z,16.13
2022-11-12T07:01:13.424Z,14.80
2022-11-12T07:03:41.913Z,14.48
2022-11-12T07:06:13.348Z,16.35
2022-11-12T07:08:40.828Z,15.32
2022-11-12T07:11:08.296Z,15.68
2022-11-12T07:13:36.143Z,15.55
2022-11-12T07:16:03.824Z,14.93
2022-11-12T07:18:31.727Z,15.25
2022-11-12T07:21:03.466Z,15.63
2022-11-12T07:23:31.359Z,14.85
2022-11-12T07:25:58.658Z,16.55
2022-11-12T07:28:26.385Z,15.05
2022-11-12T07:30:57.374Z,16.02
2022-11-12T07:33:24.645Z,15.27
2022-11-12T07:35:57.262Z,15.85
2022-11-12T07:38:24.644Z,15.95
2022-11-12T07:40:52.019Z,16.88
2022-11-12T07:43:19.207Z,17.88
2022-11-12T07:45:46.348Z,16.90
2022-11-12T07:48:13.517Z,18.02
2022-11-12T07:50:40.688Z,17.30
2022-11-12T07:53:07.870Z,18.42
2022-11-12T07:55:35.008Z,17.40
2022-11-12T07:58:02.171Z,18.67
2022-11-12T08:00:29.364Z,19.17
2022-11-12T08:02:59.728Z,18.55
2022-11-12T08:05:26.872Z,19.42
2022-11-12T08:07:56.961Z,19.88
2022-11-12T08:10:24.237Z,19.52
2022-11-12T08:12:51.393Z,21.45
2022-11-12T08:15:18.535Z,22.00
2022-11-12T08:17:45.708Z,23.73
2022-11-12T08:20:13.318Z,20.10
2022-11-12T08:22:45.001Z,21.27
2022-11-12T08:25:15.355Z,20.88
2022-11-12T08:27:42.820Z,21.55
2022-11-12T08:30:10.328Z,21.90
2022-11-12T08:32:37.463Z,21.52
2022-11-12T08:35:04.828Z,19.58
2022-11-12T08:37:31.966Z,21.13
2022-11-12T08:39:59.111Z,20.33
2022-11-12T08:42:26.264Z,19.67
2022-11-12T08:44:53.392Z,20.63
2022-11-12T08:47:20.546Z,19.58
2022-11-12T08:49:48.324Z,18.80
2022-11-12T08:52:15.573Z,17.67
2022-11-12T08:54:42.706Z,17.67
2022-11-12T08:57:09.865Z,15.18
2022-11-12T08:59:37.022Z,14.35
2022-11-12T09:02:04.195Z,13.32
2022-11-12T09:04:31.353Z,13.25
2022-11-12T09:06:58.553Z,11.18
2022-11-12T09:09:25.776Z,12.63
2022-11-12T09:11:52.927Z,12.25
2022-11-12T09:14:20.211Z,11.57
2022-11-12T09:16:47.388Z,11.75
2022-11-12T09:19:14.588Z,11.18
2022-11-12T09:21:41.735Z,10.98
2022-11-12T09:24:08.967Z,11.10
2022-11-12T09:26:36.136Z,10.75
2022-11-12T09:29:03.277Z,11.40
2022-11-12T09:31:30.484Z,10.90
2022-11-12T09:33:57.616Z,10.15
2022-11-12T09:36:24.767Z,11.65
2022-11-12T09:38:51.939Z,10.57
2022-11-12T09:41:39.324Z,10.77
2022-11-12T09:44:24.673Z,10.00
2022-11-12T09:46:54.706Z,9.77
2022-11-12T09:49:21.895Z,10.50
2022-11-12T09:51:51.626Z,9.25
2022-11-12T09:54:21.561Z,9.93
2022-11-12T09:56:49.664Z,10.43
2022-11-12T09:59:16.940Z,9.88
2022-11-12T10:01:59.317Z,9.82
2022-11-12T10:04:29.546Z,8.88
2022-11-12T10:07:06.848Z,8.93
2022-11-12T10:09:38.162Z,9.65
2022-11-12T10:12:29.672Z,9.27
2022-11-12T10:15:23.819Z,10.15
2022-11-12T10:17:52.846Z,9.13
2022-11-12T10:20:22.782Z,9.35
2022-11-12T10:22:59.058Z,9.48
2022-11-12T10:25:26.643Z,9.75
2022-11-12T10:27:55.436Z,10.13
2022-11-12T10:30:23.998Z,9.68
2022-11-12T10:32:51.780Z,9.02
2022-11-12T10:35:20.459Z,9.50
2022-11-12T10:38:05.140Z,9.90
2022-11-12T10:40:37.152Z,10.23
2022-11-12T10:43:21.056Z,10.18
2022-11-12T10:45:49.274Z,10.35
2022-11-12T10:48:27.352Z,9.93
2022-11-12T10:50:55.623Z,11.20
2022-11-12T10:53:36.134Z,9.85
2022-11-12T10:56:04.792Z,10.77
2022-11-12T10:58:31.995Z,10.55
2022-11-12T11:01:17.353Z,10.35
2022-11-12T11:03:58.099Z,12.05
2022-11-12T11:06:26.580Z,10.77
2022-11-12T11:08:55.054Z,11.18
2022-11-12T11:11:29.568Z,11.57
2022-11-12T11:13:57.879Z,12.27
2022-11-12T11:16:26.580Z,12.02
2022-11-12T11:18:55.905Z,11.77
2022-11-12T11:21:29.308Z,11.32
2022-11-12T11:24:15.328Z,11.60
2022-11-12T11:29:32.893Z,12.43
2022-11-12T11:32:20.255Z,12.38
2022-11-12T11:35:06.214Z,13.57
2022-11-12T11:37:36.920Z,12.45
2022-11-12T11:40:06.950Z,12.18
2022-11-12T11:42:42.287Z,12.88
2022-11-12T11:45:18.544Z,11.93
2022-11-12T11:48:01.622Z,12.13
2022-11-12T11:50:34.724Z,13.48
2022-11-12T11:53:01.898Z,11.38
2022-11-12T11:55:33.218Z,11.98
2022-11-12T11:58:12.601Z,12.65
2022-11-12T12:01:02.851Z,11.43
2022-11-12T12:03:48.485Z,11.82
2022-11-12T12:06:21.131Z,11.88
2022-11-12T12:08:51.431Z,11.77
2022-11-12T12:11:23.967Z,10.15
2022-11-12T12:14:17.147Z,10.60
2022-11-12T12:17:02.863Z,10.80
2022-11-12T12:19:33.152Z,10.35
2022-11-12T12:22:02.150Z,10.07
2022-11-12T12:24:50.816Z,10.50
2022-11-12T12:27:26.348Z,10.98
2022-11-12T12:29:56.577Z,9.75
2022-11-12T12:32:38.286Z,10.40
2022-11-12T12:35:16.812Z,10.00
2022-11-12T12:37:51.984Z,9.90
2022-11-12T12:40:42.273Z,10.55
2022-11-12T12:43:09.475Z,10.07
2022-11-12T12:45:42.389Z,10.35
2022-11-12T12:48:14.788Z,9.07
2022-11-12T12:50:43.114Z,9.70
2022-11-12T12:53:25.553Z,8.80
2022-11-12T12:55:53.441Z,9.48
2022-11-12T12:58:20.645Z,10.65
2022-11-12T13:00:53.086Z,9.18
2022-11-12T13:03:39.091Z,9.18
2022-11-12T13:06:07.396Z,9.13
2022-11-12T13:08:36.174Z,9.02
2022-11-12T13:11:03.452Z,8.70
2022-11-12T13:13:32.688Z,10.00
2022-11-12T13:16:00.826Z,8.57
2022-11-12T13:18:40.581Z,9.27
2022-11-12T13:21:07.749Z,8.27
2022-11-12T13:24:04.200Z,8.35
2022-11-12T13:26:40.291Z,8.43
2022-11-12T13:29:24.453Z,8.32
2022-11-12T13:32:11.607Z,8.77
2022-11-12T13:34:38.789Z,8.60
2022-11-12T13:37:06.725Z,8.93
2022-11-12T13:39:36.248Z,9.48
2022-11-12T13:42:28.574Z,10.38
2022-11-12T13:44:56.328Z,10.10
2022-11-12T13:47:26.184Z,10.20
2022-11-12T13:49:53.364Z,10.45
2022-11-12T13:52:20.573Z,10.25
2022-11-12T13:54:47.783Z,9.98
2022-11-12T13:57:20.795Z,9.85
2022-11-12T13:59:48.194Z,10.30
2022-11-12T14:02:21.042Z,9.85
2022-11-12T14:04:48.345Z,10.75
2022-11-12T14:07:27.748Z,10.32
2022-11-12T14:10:10.093Z,9.85
2022-11-12T14:12:52.265Z,9.43
2022-11-12T14:15:28.525Z,9.88
2022-11-12T14:18:15.654Z,9.77
2022-11-12T14:20:42.851Z,10.15
2022-11-12T14:23:12.708Z,9.23
2022-11-12T14:25:49.895Z,9.65
2022-11-12T14:28:28.389Z,10.35
2022-11-12T14:30:56.460Z,10.77
2022-11-12T14:33:26.740Z,9.95
2022-11-12T14:36:04.999Z,10.38
2022-11-12T14:38:40.215Z,11.07
2022-11-12T14:41:21.298Z,10.30
2022-11-12T14:43:55.005Z,10.40
2022-11-12T14:46:31.630Z,11.00
2022-11-12T14:48:58.760Z,10.45
2022-11-12T14:51:27.969Z,11.75
2022-11-12T14:54:00.837Z,11.50
2022-11-12T14:56:40.758Z,11.48
2022-11-12T14:59:08.173Z,12.95
2022-11-12T15:04:26.980Z,13.35
2022-11-12T15:06:58.480Z,13.50
2022-11-12T15:09:33.167Z,13.40
2022-11-12T15:12:00.493Z,12.63
2022-11-12T15:14:27.699Z,13.88
2022-11-12T15:16:54.913Z,12.70
2022-11-12T15:19:23.600Z,12.85
2022-11-12T15:21:58.399Z,13.32
2022-11-12T15:24:27.378Z,13.02
2022-11-12T15:26:55.281Z,14.07
2022-11-12T15:29:27.055Z,14.65
2022-11-12T15:32:02.264Z,15.25
2022-11-12T15:34:41.637Z,16.33
2022-11-12T15:37:11.833Z,16.77
2022-11-12T15:39:47.207Z,16.80
2022-11-12T15:44:41.529Z,18.17
2022-11-12T15:47:10.372Z,18.27
2022-11-12T15:49:47.068Z,17.35
2022-11-12T15:52:14.224Z,17.33
2022-11-12T15:54:41.449Z,17.75
2022-11-12T15:57:19.108Z,17.50
2022-11-12T15:59:46.670Z,17.52
2022-11-12T16:02:14.239Z,18.92
2022-11-12T16:04:41.931Z,18.85
2022-11-12T16:07:09.964Z,18.85
2022-11-12T16:09:38.992Z,18.98
2022-11-12T16:12:06.388Z,19.08
2022-11-12T16:14:33.588Z,20.15
2022-11-12T16:17:00.796Z,19.52
2022-11-12T16:19:27.953Z,19.60
2022-11-12T16:21:55.155Z,20.38
2022-11-12T16:24:22.292Z,21.02
2022-11-12T16:26:49.466Z,20.40
2022-11-12T16:29:16.680Z,20.05
2022-11-12T16:31:44.562Z,19.60
2022-11-12T16:34:12.290Z,19.58
2022-11-12T16:36:40.391Z,20.55
2022-11-12T16:39:07.583Z,19.83
2022-11-12T16:41:34.755Z,20.50
2022-11-12T16:44:01.904Z,20.17
2022-11-12T16:46:30.596Z,20.27
2022-11-12T16:48:58.443Z,21.58
2022-11-12T16:51:25.664Z,21.17
2022-11-12T16:53:52.852Z,20.45
2022-11-12T16:56:20.767Z,21.88
2022-11-12T16:58:48.617Z,22.08
2022-11-12T17:01:23.422Z,21.67
2022-11-12T17:03:51.199Z,23.17
2022-11-12T17:06:18.710Z,21.02
2022-11-12T17:08:47.999Z,22.30
2022-11-12T17:11:18.068Z,23.15
2022-11-12T17:13:45.251Z,23.08
2022-11-12T17:16:12.691Z,22.17
2022-11-12T17:18:40.256Z,20.88
2022-11-12T17:21:08.368Z,22.48
2022-11-12T17:23:35.492Z,21.95
2022-11-12T17:26:03.741Z,22.08
2022-11-12T17:28:31.129Z,23.05
2022-11-12T17:31:08.511Z,24.02
2022-11-12T17:33:46.280Z,22.50
2022-11-12T17:36:18.033Z,21.05
2022-11-12T17:38:45.399Z,21.40
2022-11-12T17:41:12.684Z,23.85
2022-11-12T17:43:40.210Z,22.98
2022-11-12T17:46:08.551Z,23.10
2022-11-12T17:48:36.464Z,22.50
2022-11-12T17:51:09.655Z,22.75
2022-11-12T17:53:36.981Z,21.88
2022-11-12T17:56:04.642Z,21.92
2022-11-12T17:58:32.264Z,21.80
2022-11-12T18:01:06.994Z,22.75
2022-11-12T18:03:34.226Z,22.02
2022-11-12T18:06:01.583Z,24.90
2022-11-12T18:08:28.775Z,25.15
2022-11-12T18:10:56.168Z,25.30
2022-11-12T18:13:23.332Z,24.75
2022-11-12T18:15:50.451Z,25.58
2022-11-12T18:18:18.685Z,25.00
2022-11-12T18:20:46.261Z,24.13
2022-11-12T18:23:13.455Z,25.27
2022-11-12T18:25:40.790Z,25.15
2022-11-12T18:28:08.434Z,25.52
2022-11-12T18:30:36.283Z,24.55
2022-11-12T18:33:03.429Z,24.83
2022-11-12T18:35:30.640Z,25.63
2022-11-12T18:37:57.830Z,26.17
2022-11-12T18:40:25.021Z,25.40
2022-11-12T18:42:52.199Z,23.17
2022-11-12T18:45:19.356Z,23.92
2022-11-12T18:47:46.565Z,23.17
2022-11-12T18:50:13.773Z,23.38
2022-11-12T18:52:40.940Z,24.55
2022-11-12T18:55:08.375Z,23.15
2022-11-12T18:57:35.623Z,21.88
2022-11-12T19:00:03.255Z,22.70
2022-11-12T19:02:30.428Z,21.35
2022-11-12T19:04:57.587Z,21.60
2022-11-12T19:07:24.735Z,22.30
2022-11-12T19:09:51.923Z,23.30
2022-11-12T19:12:19.168Z,21.58
2022-11-12T19:14:46.358Z,22.83
2022-11-12T19:17:13.566Z,21.58
2022-11-12T19:19:40.713Z,22.70
2022-11-12T19:22:07.854Z,22.05
2022-11-12T19:24:35.050Z,23.63
2022-11-12T19:27:02.248Z,23.35
2022-11-12T19:29:30.786Z,22.15
2022-11-12T19:31:57.928Z,24.13
2022-11-12T19:34:25.132Z,23.48
2022-11-12T19:37:11.924Z,22.27
2022-11-12T19:39:39.470Z,23.60
2022-11-12T19:42:08.975Z,23.13
2022-11-12T19:44:36.183Z,23.23
2022-11-12T19:47:03.355Z,23.90
2022-11-12T19:49:30.564Z,24.50
2022-11-12T19:51:57.708Z,22.95
2022-11-12T19:54:24.970Z,24.55
2022-11-12T19:56:52.248Z,22.42
2022-11-12T19:59:19.601Z,22.00
2022-11-12T20:01:46.797Z,22.02
2022-11-12T20:04:13.987Z,22.05
2022-11-12T20:06:41.177Z,22.73
2022-11-12T20:09:08.855Z,23.20
2022-11-12T20:11:36.032Z,25.23
2022-11-12T20:14:03.192Z,23.90
2022-11-12T20:16:30.403Z,25.58
2022-11-12T20:18:57.596Z,27.40
2022-11-12T20:21:25.234Z,26.83
2022-11-12T20:23:54.979Z,27.65
2022-11-12T20:26:22.192Z,27.52
2022-11-12T20:28:49.435Z,26.73
2022-11-12T20:31:20.447Z,24.88
2022-11-12T20:33:50.250Z,26.17
2022-11-12T20:36:21.256Z,27.45
2022-11-12T20:38:50.256Z,26.83
2022-11-12T20:41:19.116Z,24.75
2022-11-12T20:43:46.290Z,26.08
2022-11-12T20:46:13.979Z,27.05
2022-11-12T20:48:43.427Z,27.55
2022-11-12T20:51:28.392Z,27.58
2022-11-12T20:53:59.905Z,29.17
2022-11-12T20:56:28.686Z,30.20
2022-11-12T20:58:55.840Z,31.30
2022-11-12T21:01:23.980Z,32.55
2022-11-12T21:03:51.488Z,31.42
2022-11-12T21:06:19.767Z,33.08
2022-11-12T21:08:47.164Z,32.67
2022-11-12T21:11:15.882Z,31.55
2022-11-12T21:13:43.093Z,31.40
2022-11-12T21:16:10.919Z,30.70
2022-11-12T21:18:38.556Z,31.38
2022-11-12T21:21:06.953Z,31.02
2022-11-12T21:23:35.547Z,32.35
2022-11-12T21:26:13.342Z,31.40
2022-11-12T21:28:43.167Z,31.52
2022-11-12T21:31:14.866Z,32.53
2022-11-12T21:33:41.999Z,31.73
2022-11-12T21:36:14.852Z,30.08
2022-11-12T21:38:43.687Z,30.80
2022-11-12T21:41:12.140Z,30.45
2022-11-12T21:43:40.002Z,28.63
2022-11-12T21:46:08.437Z,27.85
2022-11-12T21:48:35.904Z,26.63
2022-11-12T21:51:06.233Z,27.88
2022-11-12T21:53:33.551Z,27.50
2022-11-12T21:56:11.072Z,28.75
2022-11-12T21:58:38.852Z,27.98
2022-11-12T22:01:16.080Z,29.15
2022-11-12T22:03:43.921Z,29.08
2022-11-12T22:06:11.296Z,28.02
2022-11-12T22:08:38.665Z,28.08
2022-11-12T22:11:09.800Z,28.50
2022-11-12T22:13:37.106Z,25.88
2022-11-12T22:16:07.483Z,27.92
2022-11-12T22:18:34.773Z,29.30
2022-11-12T22:21:03.397Z,30.38
2022-11-12T22:23:32.980Z,27.80
2022-11-12T22:26:00.507Z,29.27
2022-11-12T22:28:27.967Z,28.35
2022-11-12T22:30:55.298Z,29.05
2022-11-12T22:33:22.637Z,29.10
2022-11-12T22:35:49.777Z,28.60
2022-11-12T22:38:16.919Z,27.33
2022-11-12T22:40:44.076Z,27.42
2022-11-12T22:43:11.240Z,24.08
2022-11-12T22:45:38.391Z,24.73
2022-11-12T22:48:05.802Z,28.02
2022-11-12T22:50:32.978Z,26.15
2022-11-12T22:53:00.220Z,26.98
2022-11-12T22:55:27.476Z,25.00
2022-11-12T22:57:54.616Z,25.45
2022-11-12T23:00:28.846Z,26.33
2022-11-12T23:02:55.968Z,24.75
2022-11-12T23:05:23.269Z,25.42
2022-11-12T23:07:50.480Z,26.10
2022-11-12T23:10:17.687Z,25.05
2022-11-12T23:12:44.850Z,25.25
2022-11-12T23:15:11.994Z,25.80
2022-11-12T23:17:39.181Z,25.85
2022-11-12T23:20:06.564Z,25.27
2022-11-12T23:22:33.779Z,26.38
2022-11-12T23:25:00.940Z,25.08
2022-11-12T23:27:28.950Z,24.33
2022-11-12T23:29:56.126Z,25.88
2022-11-12T23:32:23.344Z,26.75
2022-11-12T23:34:50.532Z,29.35
2022-11-12T23:37:17.716Z,28.60
2022-11-12T23:39:44.872Z,27.70
2022-11-12T23:42:12.081Z,28.58
2022-11-12T23:44:39.496Z,29.50
2022-11-12T23:47:06.756Z,29.60
2022-11-12T23:49:33.886Z,28.83
2022-11-12T23:52:01.055Z,28.35
2022-11-12T23:54:28.198Z,28.20
2022-11-12T23:56:55.383Z,27.25
2022-11-12T23:59:22.516Z,27.90
